createdAt,value
2022-10-08T00:01:41.484Z,10.10
2022-10-08T00:04:08.718Z,14.63
2022-10-08T00:06:35.819Z,14.83
2022-10-08T00:09:04.334Z,15.77
2022-10-08T00:11:32.867Z,17.03
2022-10-08T00:14:01.975Z,14.37
2022-10-08T00:16:31.043Z,11.27
2022-10-08T00:18:59.503Z,10.40
2022-10-08T00:21:28.665Z,11.40
2022-10-08T00:23:56.287Z,12.97
2022-10-08T00:26:24.387Z,13.77
2022-10-08T00:28:52.357Z,11.83
2022-10-08T00:31:21.162Z,11.50
2022-10-08T00:33:55.600Z,12.07
2022-10-08T00:36:23.720Z,11.57
2022-10-08T00:38:55.865Z,11.87
2022-10-08T00:41:24.743Z,11.30
2022-10-08T00:43:53.346Z,10.07
2022-10-08T00:46:32.305Z,9.03
2022-10-08T00:49:25.672Z,14.27
2022-10-08T00:51:53.868Z,12.27
2022-10-08T00:54:21.884Z,9.33
2022-10-08T00:56:51.262Z,8.20
2022-10-08T00:59:18.643Z,12.27
2022-10-08T01:01:45.760Z,11.57
2022-10-08T01:04:14.428Z,11.27
2022-10-08T01:07:00.284Z,9.53
2022-10-08T01:09:32.649Z,12.63
2022-10-08T01:11:59.936Z,11.93
2022-10-08T01:14:49.222Z,11.83
2022-10-08T01:17:39.454Z,11.80
2022-10-08T01:20:25.442Z,14.67
2022-10-08T01:23:04.785Z,14.40
2022-10-08T01:25:44.716Z,12.83
2022-10-08T01:28:22.114Z,11.37
2022-10-08T01:31:09.579Z,14.70
2022-10-08T01:33:56.956Z,13.43
2022-10-08T01:36:25.050Z,15.10
2022-10-08T01:38:54.768Z,12.83
2022-10-08T01:41:23.542Z,11.77
2022-10-08T01:43:53.786Z,10.90
2022-10-08T01:46:26.095Z,12.77
2022-10-08T01:48:54.005Z,11.00
2022-10-08T01:51:23.531Z,11.57
2022-10-08T01:53:51.642Z,12.10
2022-10-08T01:56:22.276Z,15.10
2022-10-08T01:58:53.274Z,11.57
2022-10-08T02:01:28.255Z,12.80
2022-10-08T02:04:14.352Z,12.83
2022-10-08T02:06:43.429Z,13.33
2022-10-08T02:09:11.219Z,12.10
2022-10-08T02:11:38.353Z,10.80
2022-10-08T02:14:05.958Z,10.90
2022-10-08T02:16:34.010Z,13.03
2022-10-08T02:19:04.429Z,14.17
2022-10-08T02:21:32.411Z,12.53
2022-10-08T02:23:59.480Z,9.57
2022-10-08T02:26:29.885Z,12.27
2022-10-08T02:29:01.760Z,12.10
2022-10-08T02:31:28.859Z,11.40
2022-10-08T02:33:58.604Z,11.87
2022-10-08T02:36:31.196Z,12.80
2022-10-08T02:38:59.936Z,11.50
2022-10-08T02:41:29.605Z,14.23
2022-10-08T02:43:58.444Z,11.97
2022-10-08T02:46:28.460Z,12.53
2022-10-08T02:49:02.239Z,14.43
2022-10-08T02:51:30.267Z,11.37
2022-10-08T02:53:58.711Z,11.50
2022-10-08T02:56:33.404Z,10.47
2022-10-08T02:59:00.782Z,10.57
2022-10-08T03:01:30.919Z,12.47
2022-10-08T03:04:00.843Z,12.20
2022-10-08T03:06:29.851Z,10.93
2022-10-08T03:08:59.491Z,11.97
2022-10-08T03:11:27.423Z,11.17
2022-10-08T03:13:58.270Z,12.03
2022-10-08T03:16:28.792Z,13.90
2022-10-08T03:18:59.033Z,14.83
2022-10-08T03:21:28.177Z,10.40
2022-10-08T03:23:55.256Z,11.43
2022-10-08T03:26:22.467Z,10.73
2022-10-08T03:28:49.534Z,10.03
2022-10-08T03:31:16.619Z,10.07
2022-10-08T03:33:43.850Z,16.67
2022-10-08T03:36:10.991Z,19.13
2022-10-08T03:38:38.068Z,12.37
2022-10-08T03:41:05.139Z,12.23
2022-10-08T03:43:33.169Z,13.47
2022-10-08T03:46:00.697Z,13.97
2022-10-08T03:48:28.148Z,13.53
2022-10-08T03:50:57.199Z,12.70
2022-10-08T03:53:24.735Z,14.23
2022-10-08T03:55:51.851Z,14.10
2022-10-08T03:58:19.453Z,14.43
2022-10-08T04:00:56.995Z,14.47
2022-10-08T04:03:24.161Z,14.53
2022-10-08T04:05:51.370Z,14.07
2022-10-08T04:08:18.480Z,13.30
2022-10-08T04:10:45.624Z,15.57
2022-10-08T04:13:12.771Z,14.70
2022-10-08T04:15:39.888Z,17.27
2022-10-08T04:18:07.326Z,14.97
2022-10-08T04:20:34.692Z,13.40
2022-10-08T04:23:01.827Z,12.83
2022-10-08T04:25:28.936Z,14.97
2022-10-08T04:27:56.121Z,21.23
2022-10-08T04:30:24.234Z,16.57
2022-10-08T04:32:51.674Z,15.10
2022-10-08T04:35:18.775Z,16.33
2022-10-08T04:37:45.864Z,18.07
2022-10-08T04:40:12.942Z,10.77
2022-10-08T04:42:40.090Z,15.43
2022-10-08T04:45:07.583Z,21.53
2022-10-08T04:47:34.643Z,18.30
2022-10-08T04:50:01.719Z,15.03
2022-10-08T04:52:28.848Z,17.13
2022-10-08T04:54:55.931Z,20.97
2022-10-08T04:57:23.018Z,17.37
2022-10-08T05:00:13.613Z,13.50
2022-10-08T05:02:37.269Z,16.63
2022-10-08T05:05:04.536Z,16.30
2022-10-08T05:07:31.720Z,15.87
2022-10-08T05:09:58.810Z,19.53
2022-10-08T05:12:25.883Z,19.50
2022-10-08T05:14:52.991Z,17.10
2022-10-08T05:17:20.072Z,17.23
2022-10-08T05:19:47.199Z,15.87
2022-10-08T05:22:14.267Z,18.47
2022-10-08T05:24:41.362Z,17.63
2022-10-08T05:27:08.624Z,15.13
2022-10-08T05:29:35.726Z,19.40
2022-10-08T05:32:02.908Z,15.17
2022-10-08T05:34:30.019Z,15.77
2022-10-08T05:36:57.105Z,17.43
2022-10-08T05:39:24.192Z,19.13
2022-10-08T05:41:51.749Z,18.07
2022-10-08T05:44:18.917Z,21.87
2022-10-08T05:46:46.227Z,20.43
2022-10-08T05:49:18.788Z,19.77
2022-10-08T05:51:45.957Z,22.57
2022-10-08T05:54:13.085Z,24.67
2022-10-08T05:56:40.189Z,19.87
2022-10-08T05:59:07.326Z,20.23
2022-10-08T06:01:34.983Z,19.10
2022-10-08T06:04:08.394Z,20.60
2022-10-08T06:06:37.333Z,20.17
2022-10-08T06:09:04.766Z,21.73
2022-10-08T06:11:32.974Z,19.60
2022-10-08T06:14:00.853Z,17.87
2022-10-08T06:16:28.545Z,20.00
2022-10-08T06:18:55.722Z,16.37
2022-10-08T06:21:24.042Z,19.70
2022-10-08T06:23:52.109Z,18.27
2022-10-08T06:26:19.561Z,21.97
2022-10-08T06:28:46.944Z,18.50
2022-10-08T06:31:14.392Z,26.23
2022-10-08T06:33:41.493Z,21.37
2022-10-08T06:36:14.711Z,17.30
2022-10-08T06:38:41.807Z,18.53
2022-10-08T06:41:08.936Z,17.70
2022-10-08T06:43:36.187Z,18.73
2022-10-08T06:46:06.760Z,12.77
2022-10-08T06:48:33.971Z,21.27
2022-10-08T06:51:01.853Z,17.60
2022-10-08T06:53:29.328Z,16.40
2022-10-08T06:55:57.424Z,14.27
2022-10-08T06:58:24.924Z,19.03
2022-10-08T07:01:01.564Z,18.30
2022-10-08T07:03:28.829Z,14.97
2022-10-08T07:05:55.905Z,18.67
2022-10-08T07:08:23.018Z,18.63
2022-10-08T07:10:50.659Z,17.40
2022-10-08T07:13:17.722Z,18.23
2022-10-08T07:15:44.800Z,20.37
2022-10-08T07:18:12.731Z,22.27
2022-10-08T07:20:40.315Z,19.13
2022-10-08T07:23:07.415Z,20.03
2022-10-08T07:25:34.511Z,21.20
2022-10-08T07:28:01.785Z,16.97
2022-10-08T07:30:29.021Z,17.40
2022-10-08T07:32:56.188Z,16.27
2022-10-08T07:35:23.340Z,19.33
2022-10-08T07:37:50.436Z,17.33
2022-10-08T07:40:17.563Z,16.07
2022-10-08T07:42:45.104Z,17.23
2022-10-08T07:45:12.364Z,15.77
2022-10-08T07:47:39.483Z,14.27
2022-10-08T07:50:06.704Z,22.50
2022-10-08T07:52:33.853Z,17.63
2022-10-08T07:55:01.135Z,15.63
2022-10-08T07:57:28.642Z,18.40
2022-10-08T07:59:55.723Z,20.30
2022-10-08T08:02:22.916Z,19.77
2022-10-08T08:04:50.026Z,15.90
2022-10-08T08:07:17.122Z,16.37
2022-10-08T08:09:44.193Z,14.60
2022-10-08T08:12:11.874Z,15.80
2022-10-08T08:14:39.008Z,15.67
2022-10-08T08:17:06.165Z,11.47
2022-10-08T08:19:33.296Z,18.70
2022-10-08T08:22:00.479Z,16.77
2022-10-08T08:24:27.655Z,13.60
2022-10-08T08:26:57.675Z,14.33
2022-10-08T08:29:24.980Z,12.73
2022-10-08T08:31:52.176Z,10.57
2022-10-08T08:34:20.858Z,8.50
2022-10-08T08:36:49.441Z,9.10
2022-10-08T08:39:18.265Z,8.83
2022-10-08T08:42:06.312Z,7.13
2022-10-08T08:44:39.609Z,9.33
2022-10-08T08:47:06.692Z,10.87
2022-10-08T08:49:49.239Z,9.17
2022-10-08T08:52:17.942Z,10.27
2022-10-08T08:54:49.588Z,10.50
2022-10-08T08:57:41.537Z,11.53
2022-10-08T09:00:28.980Z,16.57
2022-10-08T09:03:04.817Z,14.97
2022-10-08T09:05:34.088Z,10.07
2022-10-08T09:08:21.546Z,6.63
2022-10-08T09:10:51.412Z,7.90
2022-10-08T09:13:21.144Z,11.57
2022-10-08T09:15:48.343Z,11.93
2022-10-08T09:18:16.646Z,9.23
2022-10-08T09:20:44.686Z,11.67
2022-10-08T09:23:21.684Z,10.83
2022-10-08T09:26:13.585Z,9.57
2022-10-08T09:28:41.232Z,9.27
2022-10-08T09:31:12.960Z,9.90
2022-10-08T09:33:40.493Z,7.30
2022-10-08T09:36:07.669Z,8.30
2022-10-08T09:38:37.417Z,8.50
2022-10-08T09:41:11.620Z,6.20
2022-10-08T09:43:39.659Z,6.97
2022-10-08T09:46:11.710Z,4.87
2022-10-08T09:48:39.707Z,7.03
2022-10-08T09:51:11.812Z,4.73
2022-10-08T09:53:47.023Z,4.77
2022-10-08T09:56:15.027Z,3.73
2022-10-08T09:58:54.413Z,7.27
2022-10-08T10:01:22.032Z,4.23
2022-10-08T10:03:59.568Z,7.10
2022-10-08T10:06:29.895Z,9.03
2022-10-08T10:09:02.283Z,7.93
2022-10-08T10:11:32.374Z,7.17
2022-10-08T10:14:02.168Z,5.87
2022-10-08T10:16:33.912Z,9.03
2022-10-08T10:19:03.735Z,5.23
2022-10-08T10:21:37.316Z,4.90
2022-10-08T10:24:07.638Z,4.60
2022-10-08T10:26:37.934Z,4.70
2022-10-08T10:29:11.738Z,4.33
2022-10-08T10:31:40.883Z,4.57
2022-10-08T10:34:11.013Z,7.20
2022-10-08T10:36:51.367Z,8.37
2022-10-08T10:39:37.349Z,8.53
2022-10-08T10:42:23.411Z,8.00
2022-10-08T10:44:54.800Z,7.40
2022-10-08T10:47:27.114Z,7.57
2022-10-08T10:49:56.876Z,11.10
2022-10-08T10:52:37.825Z,7.40
2022-10-08T10:55:23.755Z,7.57
2022-10-08T10:58:10.870Z,8.50
2022-10-08T11:00:47.976Z,7.70
2022-10-08T11:03:33.777Z,9.33
2022-10-08T11:06:19.698Z,8.33
2022-10-08T11:08:57.386Z,9.97
2022-10-08T11:11:32.252Z,10.63
2022-10-08T11:14:00.340Z,6.47
2022-10-08T11:16:33.629Z,7.87
2022-10-08T11:19:02.676Z,9.17
2022-10-08T11:21:45.068Z,7.57
2022-10-08T11:24:21.343Z,8.03
2022-10-08T11:26:58.159Z,6.40
2022-10-08T11:29:25.252Z,6.23
2022-10-08T11:31:53.562Z,6.20
2022-10-08T11:34:22.512Z,9.57
2022-10-08T11:37:00.282Z,6.17
2022-10-08T11:39:47.539Z,9.27
2022-10-08T11:42:18.453Z,6.90
2022-10-08T11:44:45.632Z,8.60
2022-10-08T11:47:31.717Z,7.60
2022-10-08T11:49:58.879Z,7.80
2022-10-08T11:52:30.077Z,5.07
2022-10-08T11:54:57.813Z,6.27
2022-10-08T11:57:49.243Z,8.27
2022-10-08T12:00:36.103Z,4.13
2022-10-08T12:03:05.785Z,7.03
2022-10-08T12:05:32.982Z,7.07
2022-10-08T12:08:02.873Z,7.10
2022-10-08T12:10:32.104Z,7.90
2022-10-08T12:13:01.969Z,5.97
2022-10-08T12:15:30.382Z,7.57
2022-10-08T12:18:02.171Z,6.53
2022-10-08T12:20:30.508Z,7.93
2022-10-08T12:23:03.431Z,4.80
2022-10-08T12:25:30.527Z,5.47
2022-10-08T12:28:16.270Z,6.63
2022-10-08T12:30:50.797Z,5.83
2022-10-08T12:33:18.396Z,3.87
2022-10-08T12:36:04.309Z,4.77
2022-10-08T12:38:51.003Z,6.23
2022-10-08T12:41:36.757Z,5.10
2022-10-08T12:44:03.826Z,7.00
2022-10-08T12:46:30.965Z,6.17
2022-10-08T12:49:00.748Z,9.23
2022-10-08T12:51:46.651Z,5.07
2022-10-08T12:54:21.824Z,6.83
2022-10-08T12:56:49.153Z,5.37
2022-10-08T12:59:18.095Z,4.97
2022-10-08T13:01:46.819Z,5.30
2022-10-08T13:04:18.821Z,8.60
2022-10-08T13:06:46.247Z,5.13
2022-10-08T13:09:27.335Z,6.67
2022-10-08T13:11:59.397Z,7.07
2022-10-08T13:14:30.668Z,5.67
2022-10-08T13:16:58.151Z,7.43
2022-10-08T13:19:28.370Z,7.13
2022-10-08T13:22:06.219Z,7.87
2022-10-08T13:24:43.503Z,7.70
2022-10-08T13:27:25.320Z,7.23
2022-10-08T13:29:52.519Z,8.13
2022-10-08T13:32:21.665Z,8.20
2022-10-08T13:35:01.571Z,8.13
2022-10-08T13:37:30.829Z,7.63
2022-10-08T13:39:58.150Z,5.70
2022-10-08T13:42:44.516Z,7.03
2022-10-08T13:45:25.188Z,6.77
2022-10-08T13:47:52.669Z,6.43
2022-10-08T13:50:20.346Z,6.50
2022-10-08T13:52:53.585Z,6.87
2022-10-08T13:55:28.534Z,7.83
2022-10-08T13:57:56.413Z,8.17
2022-10-08T14:00:23.792Z,8.10
2022-10-08T14:02:53.767Z,5.93
2022-10-08T14:05:24.298Z,7.33
2022-10-08T14:07:56.999Z,7.77
2022-10-08T14:10:24.163Z,4.80
2022-10-08T14:12:51.356Z,7.33
2022-10-08T14:15:18.599Z,9.03
2022-10-08T14:17:46.184Z,8.45
2022-10-08T14:20:13.556Z,9.90
2022-10-08T14:22:40.700Z,8.32
2022-10-08T14:25:09.150Z,6.53
2022-10-08T14:27:36.256Z,6.30
2022-10-08T14:30:03.701Z,7.60
2022-10-08T14:32:30.767Z,11.27
2022-10-08T14:34:57.883Z,18.13
2022-10-08T14:37:24.964Z,12.37
2022-10-08T14:39:52.046Z,11.07
2022-10-08T14:42:19.134Z,12.70
2022-10-08T14:44:47.884Z,7.17
2022-10-08T14:47:15.543Z,7.87
2022-10-08T14:49:42.608Z,7.03
2022-10-08T14:52:09.898Z,12.40
2022-10-08T14:54:37.000Z,7.80
2022-10-08T14:57:04.270Z,8.73
2022-10-08T14:59:32.207Z,10.17
2022-10-08T15:02:01.516Z,11.80
2022-10-08T15:04:28.695Z,7.80
2022-10-08T15:06:55.832Z,12.40
2022-10-08T15:09:22.985Z,11.83
2022-10-08T15:11:50.297Z,8.87
2022-10-08T15:14:17.388Z,10.40
2022-10-08T15:16:44.631Z,8.87
2022-10-08T15:19:12.934Z,11.03
2022-10-08T15:21:40.022Z,9.93
2022-10-08T15:24:07.162Z,8.97
2022-10-08T15:26:34.284Z,8.83
2022-10-08T15:29:01.940Z,9.27
2022-10-08T15:31:29.493Z,8.47
2022-10-08T15:33:58.574Z,7.73
2022-10-08T15:36:25.853Z,9.40
2022-10-08T15:38:57.357Z,8.13
2022-10-08T15:41:25.092Z,7.37
2022-10-08T15:43:52.268Z,8.63
2022-10-08T15:46:20.502Z,9.40
2022-10-08T15:48:51.840Z,6.77
2022-10-08T15:51:19.302Z,6.87
2022-10-08T15:53:46.442Z,9.30
2022-10-08T15:56:13.554Z,7.03
2022-10-08T15:58:56.031Z,7.90
2022-10-08T16:01:23.893Z,9.23
2022-10-08T16:03:52.114Z,6.80
2022-10-08T16:06:20.544Z,7.27
2022-10-08T16:08:48.040Z,8.17
2022-10-08T16:11:16.448Z,9.83
2022-10-08T16:13:44.851Z,9.70
2022-10-08T16:16:15.154Z,9.77
2022-10-08T16:18:42.582Z,9.43
2022-10-08T16:21:10.865Z,11.73
2022-10-08T16:23:38.471Z,6.37
2022-10-08T16:26:06.896Z,7.73
2022-10-08T16:28:38.349Z,6.63
2022-10-08T16:31:06.021Z,7.73
2022-10-08T16:33:33.413Z,9.47
2022-10-08T16:36:05.399Z,7.73
2022-10-08T16:38:36.627Z,7.40
2022-10-08T16:41:20.217Z,8.13
2022-10-08T16:43:49.327Z,7.33
2022-10-08T16:46:21.138Z,6.90
2022-10-08T16:48:52.056Z,5.83
2022-10-08T16:51:19.727Z,7.97
2022-10-08T16:53:50.706Z,9.20
2022-10-08T16:56:18.510Z,8.48
2022-10-08T16:58:45.702Z,4.40
2022-10-08T17:01:12.938Z,6.90
2022-10-08T17:03:40.147Z,7.60
2022-10-08T17:06:09.777Z,5.37
2022-10-08T17:08:36.938Z,8.83
2022-10-08T17:11:05.252Z,6.20
2022-10-08T17:13:32.424Z,8.35
2022-10-08T17:16:03.644Z,7.13
2022-10-08T17:18:32.516Z,8.67
2022-10-08T17:21:00.427Z,4.57
2022-10-08T17:23:28.243Z,6.53
2022-10-08T17:25:56.673Z,9.10
2022-10-08T17:28:27.607Z,7.90
2022-10-08T17:30:55.381Z,8.17
2022-10-08T17:33:22.532Z,6.43
2022-10-08T17:35:49.798Z,7.43
2022-10-08T17:38:16.908Z,5.83
2022-10-08T17:40:44.047Z,8.73
2022-10-08T17:43:11.227Z,7.53
2022-10-08T17:45:38.302Z,6.90
2022-10-08T17:48:05.371Z,5.27
2022-10-08T17:50:36.461Z,6.37
2022-10-08T17:53:04.848Z,6.70
2022-10-08T17:55:33.154Z,8.37
2022-10-08T17:58:00.673Z,6.10
2022-10-08T18:00:28.417Z,7.20
2022-10-08T18:02:55.591Z,6.13
2022-10-08T18:05:22.795Z,5.40
2022-10-08T18:07:49.860Z,10.20
2022-10-08T18:10:16.980Z,7.40
2022-10-08T18:12:44.071Z,6.47
2022-10-08T18:15:11.362Z,6.73
2022-10-08T18:17:38.516Z,5.23
2022-10-08T18:20:05.872Z,7.30
2022-10-08T18:22:33.101Z,8.03
2022-10-08T18:25:01.865Z,7.17
2022-10-08T18:27:29.275Z,6.53
2022-10-08T18:29:56.347Z,6.17
2022-10-08T18:32:23.403Z,5.97
2022-10-08T18:34:51.245Z,6.53
2022-10-08T18:37:18.355Z,5.77
2022-10-08T18:39:45.445Z,5.33
2022-10-08T18:42:12.529Z,6.03
2022-10-08T18:44:39.677Z,5.97
2022-10-08T18:47:06.753Z,6.72
2022-10-08T18:49:34.040Z,7.37
2022-10-08T18:52:01.523Z,7.07
2022-10-08T18:54:28.696Z,8.57
2022-10-08T18:56:56.775Z,6.67
2022-10-08T18:59:23.961Z,5.30
2022-10-08T19:01:51.589Z,7.47
2022-10-08T19:04:21.330Z,5.33
2022-10-08T19:06:49.288Z,8.97
2022-10-08T19:09:16.378Z,6.77
2022-10-08T19:11:45.432Z,8.23
2022-10-08T19:14:14.286Z,6.37
2022-10-08T19:16:41.415Z,8.37
2022-10-08T19:19:10.122Z,9.93
2022-10-08T19:21:38.649Z,8.77
2022-10-08T19:24:07.004Z,8.40
2022-10-08T19:26:34.291Z,7.30
2022-10-08T19:29:01.399Z,8.70
2022-10-08T19:31:30.046Z,9.03
2022-10-08T19:34:06.783Z,6.53
2022-10-08T19:36:35.469Z,8.87
2022-10-08T19:39:07.217Z,6.30
2022-10-08T19:41:34.324Z,8.50
2022-10-08T19:44:01.427Z,5.67
2022-10-08T19:46:28.653Z,5.37
2022-10-08T19:48:57.398Z,7.47
2022-10-08T19:51:24.739Z,7.13
2022-10-08T19:53:52.186Z,6.27
2022-10-08T19:56:19.775Z,8.20
2022-10-08T19:58:48.999Z,7.20
2022-10-08T20:01:23.745Z,6.13
2022-10-08T20:03:55.775Z,8.40
2022-10-08T20:06:24.981Z,5.47
2022-10-08T20:08:56.079Z,6.60
2022-10-08T20:11:23.314Z,6.57
2022-10-08T20:13:51.943Z,10.13
2022-10-08T20:16:20.663Z,5.57
2022-10-08T20:18:59.256Z,5.40
2022-10-08T20:21:27.064Z,8.50
2022-10-08T20:23:54.221Z,8.60
2022-10-08T20:26:28.066Z,8.53
2022-10-08T20:28:59.746Z,9.60
2022-10-08T20:31:28.793Z,9.83
2022-10-08T20:34:17.375Z,8.10
2022-10-08T20:36:45.640Z,7.47
2022-10-08T20:39:13.901Z,6.10
2022-10-08T20:41:41.489Z,10.03
2022-10-08T20:44:08.930Z,6.63
2022-10-08T20:46:37.087Z,5.50
2022-10-08T20:49:05.311Z,5.00
2022-10-08T20:51:32.835Z,10.83
2022-10-08T20:54:04.840Z,10.03
2022-10-08T20:56:38.548Z,9.70
2022-10-08T20:59:07.125Z,9.13
2022-10-08T21:01:35.674Z,10.13
2022-10-08T21:04:03.000Z,6.40
2022-10-08T21:06:31.695Z,6.10
2022-10-08T21:08:59.999Z,7.30
2022-10-08T21:11:27.945Z,5.73
2022-10-08T21:13:55.361Z,6.83
2022-10-08T21:16:27.343Z,6.57
2022-10-08T21:18:58.772Z,5.90
2022-10-08T21:21:26.080Z,5.87
2022-10-08T21:23:53.474Z,6.90
2022-10-08T21:26:24.823Z,5.03
2022-10-08T21:28:53.612Z,6.13
2022-10-08T21:31:21.330Z,7.63
2022-10-08T21:33:49.492Z,8.23
2022-10-08T21:36:18.167Z,5.70
2022-10-08T21:38:45.275Z,5.47
2022-10-08T21:41:13.398Z,4.87
2022-10-08T21:43:41.482Z,4.43
2022-10-08T21:46:09.276Z,5.87
2022-10-08T21:48:36.784Z,6.33
2022-10-08T21:51:05.395Z,6.90
2022-10-08T21:53:33.899Z,5.67
2022-10-08T21:56:03.583Z,4.10
2022-10-08T21:58:32.001Z,3.47
2022-10-08T22:00:59.150Z,5.33
2022-10-08T22:03:26.494Z,6.20
2022-10-08T22:05:54.818Z,5.93
2022-10-08T22:08:22.620Z,5.90
2022-10-08T22:10:49.900Z,5.03
2022-10-08T22:13:17.448Z,10.03
2022-10-08T22:15:57.827Z,6.97
2022-10-08T22:18:25.926Z,4.63
2022-10-08T22:20:53.095Z,7.20
2022-10-08T22:23:20.607Z,6.00
2022-10-08T22:25:54.587Z,4.90
2022-10-08T22:28:21.835Z,5.23
2022-10-08T22:30:49.421Z,4.93
2022-10-08T22:33:16.957Z,8.20
2022-10-08T22:35:44.189Z,7.17
2022-10-08T22:38:11.800Z,8.30
2022-10-08T22:40:38.868Z,5.73
2022-10-08T22:43:05.987Z,7.57
2022-10-08T22:45:36.934Z,8.77
2022-10-08T22:48:04.047Z,4.83
2022-10-08T22:50:31.160Z,4.20
2022-10-08T22:52:58.230Z,5.73
2022-10-08T22:55:25.408Z,6.87
2022-10-08T22:57:52.479Z,8.97
2022-10-08T23:00:19.580Z,6.73
2022-10-08T23:02:46.858Z,7.97
2022-10-08T23:05:14.103Z,6.30
2022-10-08T23:07:41.276Z,4.77
2022-10-08T23:10:08.490Z,6.53
2022-10-08T23:12:35.557Z,4.97
2022-10-08T23:15:02.626Z,6.27
2022-10-08T23:17:29.708Z,6.57
2022-10-08T23:19:56.834Z,7.77
2022-10-08T23:22:25.044Z,8.37
2022-10-08T23:24:52.134Z,4.80
2022-10-08T23:27:19.262Z,6.93
2022-10-08T23:29:46.358Z,5.80
2022-10-08T23:32:13.540Z,6.30
2022-10-08T23:34:40.882Z,6.70
2022-10-08T23:37:08.007Z,8.53
2022-10-08T23:39:35.132Z,7.37
2022-10-08T23:42:02.554Z,7.80
2022-10-08T23:44:29.629Z,5.67
2022-10-08T23:46:56.710Z,7.40
2022-10-08T23:49:23.776Z,7.60
2022-10-08T23:51:50.856Z,4.90
2022-10-08T23:54:18.112Z,7.10
2022-10-08T23:56:45.176Z,7.83
2022-10-08T23:59:12.264Z,11.30
